Time;durP1;ratioP1;P1;durP2;ratioP2;P2;SDS_P1;SDS_P2;PMS_P1;PMS_P2;Temp;Humidity;BMP_temperature;BMP_pressure;BME280_temperature;BME280_humidity;BME280_pressure;Samples;Min_cycle;Max_cycle;Signal;HPM_P1;HPM_P2
2024/01/16 00:00:35;;;;;;;2.57;1.77;;;14.80;57.50;15.80;100046.00;;;;5070332;28;20649;-43
2024/01/16 00:03:01;;;;;;;4.17;1.90;;;14.80;57.50;15.80;100048.00;;;;5070264;28;20200;-44
2024/01/16 00:05:26;;;;;;;2.33;1.80;;;14.80;57.50;15.70;100046.00;;;;5070127;28;20204;-44
2024/01/16 00:07:52;;;;;;;2.13;1.90;;;14.70;57.50;15.70;100045.00;;;;5052035;28;20634;-44
2024/01/16 00:10:18;;;;;;;2.67;1.90;;;14.70;57.50;15.70;100050.00;;;;5070222;28;20174;-44
2024/01/16 00:12:44;;;;;;;2.57;1.80;;;14.70;57.70;15.70;100028.00;;;;5070344;28;20182;-44
2024/01/16 00:15:09;;;;;;;2.10;1.90;;;14.70;57.60;15.70;100048.00;;;;5051123;28;20206;-44
2024/01/16 00:17:35;;;;;;;2.37;1.87;;;14.70;57.60;15.70;100062.00;;;;5070273;28;20162;-43
2024/01/16 00:20:01;;;;;;;1.93;1.70;;;14.70;57.70;15.60;100051.00;;;;5071942;28;20656;-43
2024/01/16 00:22:27;;;;;;;2.37;1.83;;;14.60;57.70;15.60;100050.00;;;;5076322;28;20282;-43
2024/01/16 00:24:53;;;;;;;2.00;1.80;;;14.60;57.60;15.60;100060.00;;;;5070336;28;20284;-43
2024/01/16 00:27:19;;;;;;;2.20;2.00;;;14.60;57.80;15.60;100061.00;;;;5069956;28;20252;-43
2024/01/16 00:29:44;;;;;;;2.30;2.10;;;14.60;57.80;15.60;100052.00;;;;5070219;28;20217;-44
2024/01/16 00:32:10;;;;;;;1.90;1.80;;;14.60;57.80;15.60;100061.00;;;;5078052;28;20174;-43
2024/01/16 00:34:36;;;;;;;2.03;1.90;;;14.50;57.80;15.50;100062.00;;;;5070196;28;20566;-43
2024/01/16 00:37:02;;;;;;;2.97;2.07;;;14.50;57.80;15.50;100062.00;;;;5069968;28;20169;-43
2024/01/16 00:39:27;;;;;;;1.60;1.50;;;14.50;57.90;15.50;100054.00;;;;5070026;28;20174;-43
2024/01/16 00:41:53;;;;;;;2.20;1.80;;;14.50;58.00;15.50;100079.00;;;;5069489;28;20238;-44
2024/01/16 00:44:19;;;;;;;2.37;1.90;;;14.50;58.10;15.20;100078.00;;;;5069705;28;20239;-44
2024/01/16 00:46:44;;;;;;;1.90;1.80;;;14.50;58.00;15.50;100065.00;;;;5069758;28;20213;-43
2024/01/16 00:49:10;;;;;;;1.90;1.70;;;14.40;58.10;15.40;100067.00;;;;5077694;28;20177;-43
2024/01/16 00:51:36;;;;;;;2.03;1.83;;;14.40;58.20;15.40;100083.00;;;;5069678;28;20541;-43
2024/01/16 00:54:02;;;;;;;1.80;1.70;;;14.50;58.20;15.40;100080.00;;;;5051530;28;20284;-43
2024/01/16 00:56:27;;;;;;;1.70;1.60;;;14.40;58.40;15.10;100078.00;;;;5069770;28;20189;-43
2024/01/16 00:58:56;;;;;;;2.30;2.00;;;14.40;59.10;15.40;100085.00;;;;5071274;28;20180;-44
2024/01/16 01:01:22;;;;;;;1.93;1.77;;;14.40;58.50;15.30;100067.00;;;;5070070;28;20231;-42
2024/01/16 01:03:48;;;;;;;2.03;1.83;;;14.40;58.50;15.30;100079.00;;;;5069570;28;20269;-43
2024/01/16 01:06:14;;;;;;;1.90;1.70;;;14.30;58.40;15.30;100088.00;;;;5069186;28;20696;-43
2024/01/16 01:08:40;;;;;;;2.27;2.00;;;14.30;58.40;15.30;100089.00;;;;5068422;28;20177;-42
2024/01/16 01:11:05;;;;;;;1.80;1.70;;;14.30;58.40;15.30;100082.00;;;;5068495;28;20219;-42
2024/01/16 01:13:31;;;;;;;2.13;1.90;;;14.30;58.40;15.30;100084.00;;;;5076971;28;20696;-43
2024/01/16 01:15:57;;;;;;;2.10;1.90;;;14.30;58.40;15.30;100081.00;;;;5068022;28;20193;-44
2024/01/16 01:18:23;;;;;;;1.80;1.70;;;14.30;58.50;15.20;100096.00;;;;5075154;28;20190;-43
2024/01/16 01:20:49;;;;;;;2.10;1.90;;;14.20;58.30;15.20;100102.00;;;;5067732;28;20193;-44
2024/01/16 01:23:14;;;;;;;1.80;1.70;;;14.20;58.30;15.00;100101.00;;;;5068027;28;20196;-44
2024/01/16 01:25:40;;;;;;;2.20;1.83;;;14.20;58.30;15.20;100110.00;;;;5068036;28;20661;-43
2024/01/16 01:28:06;;;;;;;1.77;1.67;;;14.20;59.00;15.20;100113.00;;;;5067718;28;20231;-43
2024/01/16 01:30:32;;;;;;;2.33;2.13;;;14.20;58.40;15.20;100102.00;;;;5068280;28;20540;-43
2024/01/16 01:32:58;;;;;;;1.90;1.80;;;14.20;58.30;15.20;100111.00;;;;5050757;28;20183;-43
2024/01/16 01:35:24;;;;;;;2.07;1.87;;;14.20;58.30;15.20;100113.00;;;;5068895;28;20228;-43
2024/01/16 01:37:49;;;;;;;2.20;2.00;;;14.20;58.90;15.20;100116.00;;;;5067893;28;20583;-44
2024/01/16 01:40:15;;;;;;;2.23;1.90;;;14.10;58.20;15.20;100117.00;;;;5067792;28;20170;-43
2024/01/16 01:42:42;;;;;;;2.10;1.70;;;14.10;58.20;15.10;100117.00;;;;5068037;28;20222;-44
2024/01/16 01:45:10;;;;;;;2.10;1.90;;;14.10;58.40;15.10;100124.00;;;;5049182;28;20205;-43
2024/01/16 01:47:36;;;;;;;2.53;1.93;;;14.10;58.50;15.10;100118.00;;;;5067385;28;20203;-44
2024/01/16 01:50:03;;;;;;;2.10;1.87;;;14.10;58.50;15.10;100117.00;;;;5067321;28;20172;-43
2024/01/16 01:52:30;;;;;;;2.03;1.83;;;14.10;58.30;15.10;100109.00;;;;5049169;28;20170;-43
2024/01/16 01:54:56;;;;;;;2.30;1.80;;;14.10;58.20;15.10;100119.00;;;;5049222;28;20206;-43
2024/01/16 01:57:22;;;;;;;2.07;1.87;;;14.10;58.20;15.10;100112.00;;;;5049330;28;20174;-43
2024/01/16 01:59:48;;;;;;;2.00;1.80;;;14.10;58.30;15.10;100122.00;;;;5048800;28;20282;-43
2024/01/16 02:02:13;;;;;;;2.33;1.80;;;14.00;58.20;15.10;100110.00;;;;5067596;28;20173;-43
2024/01/16 02:04:40;;;;;;;2.10;1.90;;;14.00;58.30;15.00;100095.00;;;;5067493;28;20653;-44
2024/01/16 02:07:05;;;;;;;1.70;1.60;;;14.00;59.10;15.00;100118.00;;;;5049084;28;20254;-43
2024/01/16 02:09:31;;;;;;;2.03;1.83;;;14.00;58.70;15.00;100122.00;;;;5049160;28;20182;-43
2024/01/16 02:11:57;;;;;;;1.87;1.77;;;14.00;58.60;15.00;100117.00;;;;5067327;28;20166;-43
2024/01/16 02:14:23;;;;;;;3.00;2.07;;;14.00;58.40;15.00;100124.00;;;;5067652;28;20200;-43
2024/01/16 02:16:49;;;;;;;1.80;1.70;;;14.00;58.60;15.00;100126.00;;;;5048829;28;20249;-43
2024/01/16 02:19:15;;;;;;;1.80;1.70;;;14.00;58.50;14.90;100097.00;;;;5067473;28;20715;-43
2024/01/16 02:21:48;;;;;;;1.90;1.80;;;14.00;58.60;14.90;100124.00;;;;5048988;28;20169;-42
2024/01/16 02:24:15;;;;;;;1.93;1.80;;;13.90;58.60;14.90;100124.00;;;;5050466;28;20177;-43
2024/01/16 02:26:40;;;;;;;2.77;2.10;;;13.90;58.60;14.90;100121.00;;;;5048721;28;20281;-43
2024/01/16 02:29:06;;;;;;;2.47;1.93;;;13.90;58.50;14.90;100125.00;;;;5049323;28;20568;-43
2024/01/16 02:31:33;;;;;;;2.07;1.93;;;13.90;58.60;14.90;100128.00;;;;5071331;28;20180;-43
2024/01/16 02:33:59;;;;;;;2.67;1.80;;;13.90;58.90;14.80;100116.00;;;;5071220;28;20210;-42
2024/01/16 02:36:25;;;;;;;2.30;2.10;;;13.90;59.50;14.80;100083.00;;;;5071336;28;20707;-42
2024/01/16 02:38:51;;;;;;;2.10;1.90;;;13.80;59.50;14.80;100127.00;;;;5071557;28;20273;-43
2024/01/16 02:41:17;;;;;;;2.40;2.00;;;13.80;59.40;14.80;100130.00;;;;5071355;28;20244;-43
2024/01/16 02:43:43;;;;;;;2.50;1.80;;;13.80;59.30;14.80;100123.00;;;;5070921;28;20198;-43
2024/01/16 02:46:09;;;;;;;2.67;2.00;;;13.80;59.00;14.80;100131.00;;;;5070565;28;20243;-43
2024/01/16 02:48:35;;;;;;;1.90;1.80;;;13.80;58.90;14.80;100128.00;;;;5072727;28;20840;-43
2024/01/16 02:51:01;;;;;;;2.27;2.00;;;13.80;58.90;14.50;100123.00;;;;5071319;28;20183;-44
2024/01/16 02:53:28;;;;;;;2.07;1.87;;;13.80;58.80;14.80;100115.00;;;;5071330;28;20260;-43
2024/01/16 02:55:54;;;;;;;2.10;1.90;;;13.80;58.80;14.80;100127.00;;;;5071925;28;20359;-44
2024/01/16 02:58:21;;;;;;;2.37;1.93;;;13.80;58.80;14.80;100121.00;;;;5059944;28;20671;-43
2024/01/16 03:00:47;;;;;;;3.47;1.80;;;13.80;58.80;14.70;100120.00;;;;5071011;28;20170;-43
2024/01/16 03:03:14;;;;;;;1.97;1.87;;;13.70;58.70;14.70;100123.00;;;;5071690;28;20653;-42
2024/01/16 03:05:40;;;;;;;2.30;2.10;;;13.70;58.70;14.70;100121.00;;;;5070678;28;20190;-44
2024/01/16 03:08:06;;;;;;;2.03;1.90;;;13.70;58.70;14.70;100120.00;;;;5070595;28;20184;-43
2024/01/16 03:10:32;;;;;;;1.80;1.70;;;13.70;58.60;14.70;100118.00;;;;5051972;28;20212;-43
2024/01/16 03:12:58;;;;;;;1.80;1.70;;;13.70;58.70;14.70;100123.00;;;;5070630;28;20177;-43
2024/01/16 03:15:23;;;;;;;1.93;1.80;;;13.70;58.70;14.70;100122.00;;;;5070289;28;20209;-43
2024/01/16 03:17:49;;;;;;;1.80;1.70;;;13.70;58.60;14.70;100119.00;;;;5069833;28;20185;-43
2024/01/16 03:20:16;;;;;;;2.20;1.80;;;13.70;58.60;14.60;100111.00;;;;5070241;28;20185;-42
2024/01/16 03:22:41;;;;;;;1.87;1.77;;;13.70;58.50;14.60;100116.00;;;;5070330;28;20637;-44
2024/01/16 03:25:08;;;;;;;2.00;1.80;;;13.60;58.60;14.60;100110.00;;;;5070103;28;20209;-42
2024/01/16 03:27:34;;;;;;;2.20;1.93;;;13.70;58.60;14.60;100104.00;;;;5069306;28;20674;-43
2024/01/16 03:30:02;;;;;;;2.10;1.90;;;13.60;58.60;14.60;100115.00;;;;5070066;28;20248;-43
2024/01/16 03:32:28;;;;;;;2.10;1.90;;;13.50;58.80;14.60;100114.00;;;;5051645;28;20177;-43
2024/01/16 03:34:53;;;;;;;2.80;1.87;;;13.50;58.60;14.60;100120.00;;;;5070212;28;20209;-43
2024/01/16 03:37:19;;;;;;;2.00;1.80;;;13.60;58.70;14.60;100116.00;;;;5074726;28;20191;-42
2024/01/16 03:39:45;;;;;;;2.30;2.00;;;13.60;58.60;14.60;100111.00;;;;5072840;28;20172;-42
2024/01/16 03:42:12;;;;;;;2.10;1.90;;;13.60;58.70;14.50;100112.00;;;;5069217;28;20201;-43
2024/01/16 03:44:40;;;;;;;2.07;1.90;;;13.60;58.60;14.50;100118.00;;;;5069524;28;20169;-43
2024/01/16 03:47:06;;;;;;;2.10;1.90;;;13.50;58.70;14.50;100120.00;;;;5069663;28;20662;-42
2024/01/16 03:49:32;;;;;;;2.03;1.93;;;13.50;58.80;14.50;100119.00;;;;5067951;28;20174;-43
2024/01/16 03:51:58;;;;;;;2.67;2.00;;;13.50;58.60;14.50;100121.00;;;;5069611;28;20177;-42
2024/01/16 03:54:24;;;;;;;2.00;1.80;;;13.40;58.60;14.50;100124.00;;;;5069744;28;20194;-42
2024/01/16 03:56:49;;;;;;;2.40;2.00;;;13.50;59.00;14.50;100113.00;;;;5069576;28;20549;-43
2024/01/16 03:59:15;;;;;;;2.10;1.90;;;13.50;59.60;14.50;100107.00;;;;5050899;28;20177;-43
2024/01/16 04:01:42;;;;;;;2.17;2.00;;;13.40;59.10;14.40;100121.00;;;;5070156;28;20798;-42
2024/01/16 04:04:08;;;;;;;2.10;1.90;;;13.40;58.90;14.40;100122.00;;;;5070386;28;20297;-42
2024/01/16 04:06:34;;;;;;;2.07;1.93;;;13.40;59.00;14.40;100108.00;;;;5070130;28;20798;-43
2024/01/16 04:09:00;;;;;;;2.30;1.80;;;13.40;59.10;14.40;100112.00;;;;5070196;28;20180;-42
2024/01/16 04:11:26;;;;;;;2.40;2.00;;;13.30;59.00;14.40;100110.00;;;;5070548;28;20182;-43
2024/01/16 04:13:52;;;;;;;2.23;1.93;;;13.40;59.00;14.40;100107.00;;;;5071291;28;20201;-43
2024/01/16 04:16:17;;;;;;;2.53;1.90;;;13.40;59.00;14.40;100124.00;;;;5070927;28;20185;-43
2024/01/16 04:18:43;;;;;;;2.13;1.83;;;13.40;59.00;14.40;100111.00;;;;5078203;28;20596;-42
2024/01/16 04:21:09;;;;;;;2.10;1.90;;;13.30;58.90;14.30;100114.00;;;;5071253;28;20188;-42
2024/01/16 04:23:35;;;;;;;2.10;1.90;;;13.30;58.90;14.30;100112.00;;;;5070620;28;20451;-43
2024/01/16 04:26:01;;;;;;;2.23;1.93;;;13.30;59.10;14.30;100111.00;;;;5070014;28;20181;-43
2024/01/16 04:28:26;;;;;;;2.00;1.90;;;13.30;59.00;14.30;100118.00;;;;5069801;28;20174;-43
2024/01/16 04:30:52;;;;;;;2.73;2.17;;;13.30;60.00;14.30;100106.00;;;;5069717;28;20169;-44
2024/01/16 04:33:18;;;;;;;1.87;1.77;;;13.30;59.40;14.30;100110.00;;;;5070375;28;20660;-43
2024/01/16 04:35:44;;;;;;;1.83;1.73;;;13.30;59.60;14.30;100114.00;;;;5069894;28;20626;-44
2024/01/16 04:38:09;;;;;;;2.13;1.93;;;13.30;59.10;14.20;100108.00;;;;5073611;28;20202;-44
2024/01/16 04:40:35;;;;;;;3.33;1.90;;;13.30;59.40;14.20;100106.00;;;;5071647;28;20165;-44
2024/01/16 04:43:02;;;;;;;5.13;2.10;;;13.40;59.40;14.20;100110.00;;;;5070151;28;20543;-43
2024/01/16 04:45:28;;;;;;;2.50;1.93;;;13.50;59.40;14.30;100114.00;;;;5070831;28;20267;-42
2024/01/16 04:47:53;;;;;;;4.17;2.20;;;13.60;59.30;14.40;100114.00;;;;5069975;28;20649;-42
2024/01/16 04:50:19;;;;;;;3.10;2.00;;;13.70;59.20;14.50;100114.00;;;;5072976;28;20192;-43
2024/01/16 04:52:45;;;;;;;3.80;2.00;;;13.80;59.00;14.50;100123.00;;;;5072238;28;20178;-44
2024/01/16 04:55:11;;;;;;;2.90;1.90;;;13.90;58.80;14.60;100111.00;;;;5069156;28;20332;-44
2024/01/16 04:57:36;;;;;;;3.40;2.10;;;14.10;58.60;14.70;100100.00;;;;5069721;28;20174;-43
2024/01/16 05:00:06;;;;;;;2.90;1.80;;;14.10;58.50;14.80;100098.00;;;;5069163;28;20201;-43
2024/01/16 05:02:33;;;;;;;4.73;1.90;;;14.30;58.40;14.90;100109.00;;;;5068885;28;20530;-42
2024/01/16 05:04:59;;;;;;;3.63;1.77;;;14.40;59.10;15.00;100099.00;;;;5069320;28;20194;-43
2024/01/16 05:07:26;;;;;;;2.90;2.00;;;14.60;58.50;15.10;100102.00;;;;5069594;28;20182;-42
2024/01/16 05:09:52;;;;;;;3.17;2.00;;;14.60;58.20;15.20;100118.00;;;;5035682;28;20174;-43
2024/01/16 05:12:18;;;;;;;4.80;1.93;;;14.70;58.30;15.30;100105.00;;;;5069574;28;20183;-43
2024/01/16 05:14:43;;;;;;;3.50;2.00;;;14.90;58.50;15.40;100107.00;;;;5069328;28;20197;-43
2024/01/16 05:17:09;;;;;;;2.67;1.80;;;15.00;58.10;15.50;100113.00;;;;5071258;28;20242;-43
2024/01/16 05:19:35;;;;;;;3.80;1.70;;;15.20;58.00;15.70;100096.00;;;;5062365;28;20608;-43
2024/01/16 05:22:00;;;;;;;5.23;2.00;;;15.30;58.00;15.80;100100.00;;;;5065422;28;20201;-42
2024/01/16 05:24:26;;;;;;;4.30;2.03;;;15.50;57.90;15.90;100105.00;;;;5067326;28;20174;-43
2024/01/16 05:26:52;;;;;;;2.97;2.10;;;15.60;57.70;16.00;100102.00;;;;5067372;28;20181;-43
2024/01/16 05:29:18;;;;;;;12.57;2.20;;;15.70;57.70;16.10;100107.00;;;;5064956;28;20185;-43
2024/01/16 05:31:44;;;;;;;6.07;2.13;;;15.80;58.40;16.20;100093.00;;;;5063506;28;20287;-43
2024/01/16 05:34:13;;;;;;;3.73;2.10;;;15.90;58.60;16.30;100098.00;;;;5067390;28;20304;-42
2024/01/16 05:36:39;;;;;;;4.40;2.00;;;15.90;59.00;16.30;100097.00;;;;5066155;28;20285;-44
2024/01/16 05:39:04;;;;;;;5.93;2.27;;;15.90;58.90;16.40;100081.00;;;;5066678;28;20548;-42
2024/01/16 05:41:34;;;;;;;4.50;2.27;;;15.90;58.70;16.40;100105.00;;;;5067367;28;20178;-44
2024/01/16 05:44:00;;;;;;;6.93;2.27;;;15.90;58.70;16.50;100103.00;;;;5066266;28;20253;-43
2024/01/16 05:46:26;;;;;;;3.73;2.20;;;15.90;58.50;16.50;100090.00;;;;5067096;28;20212;-43
2024/01/16 05:48:52;;;;;;;4.03;2.10;;;16.00;58.40;16.60;100091.00;;;;5066562;28;20170;-42
2024/01/16 05:51:19;;;;;;;5.30;2.23;;;16.00;58.10;16.60;100093.00;;;;5067352;28;20281;-43
2024/01/16 05:53:44;;;;;;;5.97;2.47;;;16.00;57.80;16.60;100082.00;;;;5066653;28;20177;-42
2024/01/16 05:56:10;;;;;;;3.30;2.30;;;16.10;57.70;16.70;100069.00;;;;5066753;28;20190;-43
2024/01/16 05:58:38;;;;;;;3.70;2.40;;;16.20;57.70;16.70;100081.00;;;;5067285;28;20174;-44
2024/01/16 06:01:05;;;;;;;3.73;2.60;;;16.30;57.80;16.80;100082.00;;;;5066420;28;20183;-44
2024/01/16 06:03:31;;;;;;;8.90;2.97;;;16.30;57.90;16.80;100081.00;;;;5041387;28;20178;-44
2024/01/16 06:05:56;;;;;;;5.27;2.67;;;16.30;58.60;16.80;100075.00;;;;5052034;28;20204;-43
2024/01/16 06:08:22;;;;;;;5.53;2.73;;;16.20;58.50;16.80;100073.00;;;;5071324;28;20170;-43
2024/01/16 06:10:48;;;;;;;9.10;2.70;;;16.20;58.40;16.80;100080.00;;;;5070960;28;20272;-43
2024/01/16 06:13:13;;;;;;;7.30;2.70;;;16.20;58.20;16.80;100074.00;;;;5070723;28;20178;-44
2024/01/16 06:15:39;;;;;;;6.07;2.70;;;16.10;58.00;16.80;100085.00;;;;5077260;28;20232;-43
2024/01/16 06:18:05;;;;;;;4.33;2.53;;;16.10;58.10;16.80;100086.00;;;;5071638;28;20661;-42
2024/01/16 06:20:32;;;;;;;4.57;2.67;;;16.00;58.00;16.80;100077.00;;;;5072440;28;20250;-44
2024/01/16 06:22:57;;;;;;;6.93;2.90;;;16.00;58.00;16.80;100070.00;;;;5072672;28;20169;-43
2024/01/16 06:25:23;;;;;;;4.47;2.70;;;16.00;58.00;16.80;100078.00;;;;5072519;28;20732;-44
2024/01/16 06:27:49;;;;;;;7.60;2.80;;;16.00;58.10;16.80;100090.00;;;;5058419;28;20184;-43
2024/01/16 06:30:15;;;;;;;3.60;2.33;;;16.00;58.20;16.70;100090.00;;;;5070406;28;20181;-43
2024/01/16 06:32:40;;;;;;;4.10;2.33;;;16.00;58.20;16.70;100093.00;;;;5076321;28;20193;-43
2024/01/16 06:35:08;;;;;;;3.33;2.40;;;16.00;58.20;16.70;100076.00;;;;5070629;28;20217;-43
2024/01/16 06:37:33;;;;;;;4.17;2.50;;;16.00;58.10;16.70;100090.00;;;;5052524;28;20308;-43
2024/01/16 06:39:59;;;;;;;3.33;2.40;;;16.00;58.10;16.70;100089.00;;;;5072818;28;20252;-44
2024/01/16 06:42:25;;;;;;;6.90;2.47;;;16.00;58.20;16.70;100102.00;;;;5072679;28;20177;-43
2024/01/16 06:44:51;;;;;;;3.83;2.40;;;16.00;58.10;16.70;100087.00;;;;5069244;28;20622;-43
2024/01/16 06:47:16;;;;;;;4.00;2.60;;;16.00;58.10;16.70;100089.00;;;;5048756;28;20252;-43
2024/01/16 06:49:42;;;;;;;3.90;2.27;;;16.00;58.10;16.70;100089.00;;;;5068558;28;20209;-43
2024/01/16 06:52:09;;;;;;;3.07;1.90;;;16.00;58.00;16.70;100086.00;;;;5071701;28;20181;-43
2024/01/16 06:54:34;;;;;;;3.23;2.10;;;16.00;58.10;16.70;100090.00;;;;5071747;28;20198;-43
2024/01/16 06:57:00;;;;;;;3.90;2.23;;;16.00;58.00;16.70;100098.00;;;;5070983;28;20170;-44
2024/01/16 06:59:26;;;;;;;3.77;2.00;;;16.00;58.00;16.70;100082.00;;;;5071978;28;20175;-44
2024/01/16 07:01:52;;;;;;;2.30;1.93;;;16.00;58.00;16.70;100094.00;;;;5071726;28;20178;-44
2024/01/16 07:04:17;;;;;;;4.53;2.20;;;16.00;58.00;16.70;100096.00;;;;5072100;28;20178;-44
2024/01/16 07:06:43;;;;;;;3.67;2.27;;;16.00;58.00;16.70;100104.00;;;;5052723;28;20197;-43
2024/01/16 07:09:12;;;;;;;2.93;2.33;;;16.00;57.90;16.70;100115.00;;;;5052612;28;20831;-43
2024/01/16 07:11:42;;;;;;;4.87;2.50;;;16.00;57.90;16.70;100112.00;;;;5071678;28;20224;-44
2024/01/16 07:14:09;;;;;;;2.57;2.00;;;16.00;57.80;16.70;100104.00;;;;5053125;28;20210;-44
2024/01/16 07:16:34;;;;;;;2.80;1.90;;;16.00;57.90;16.70;100112.00;;;;5070461;28;20277;-43
2024/01/16 07:19:01;;;;;;;2.30;2.10;;;16.00;57.80;16.70;100113.00;;;;5070628;28;20232;-44
2024/01/16 07:21:27;;;;;;;4.77;2.10;;;16.00;57.80;16.70;100114.00;;;;5058040;28;20648;-43
2024/01/16 07:23:53;;;;;;;2.90;2.00;;;16.00;57.80;16.70;100120.00;;;;5073724;28;20781;-43
2024/01/16 07:26:19;;;;;;;3.20;1.97;;;16.00;57.70;16.70;100121.00;;;;5071130;28;20689;-43
2024/01/16 07:28:45;;;;;;;2.93;2.20;;;16.00;57.70;16.80;100129.00;;;;5077951;28;20180;-43
2024/01/16 07:31:11;;;;;;;3.43;2.27;;;16.00;57.70;16.80;100124.00;;;;5084839;28;20182;-44
2024/01/16 07:33:37;;;;;;;2.47;2.00;;;16.00;57.70;16.70;100135.00;;;;5072343;28;20177;-44
2024/01/16 07:36:03;;;;;;;2.43;2.10;;;16.00;57.70;16.70;100126.00;;;;5071564;28;20198;-44
2024/01/16 07:38:28;;;;;;;2.20;2.00;;;15.90;57.60;16.70;100115.00;;;;5071563;28;20173;-44
2024/01/16 07:40:56;;;;;;;2.23;2.00;;;15.90;57.60;16.70;100136.00;;;;5070737;28;20184;-44
2024/01/16 07:43:21;;;;;;;3.07;1.90;;;16.00;57.70;16.70;100129.00;;;;5071261;28;20174;-44
2024/01/16 07:45:48;;;;;;;2.13;1.93;;;16.00;57.70;16.70;100129.00;;;;5070674;28;20201;-44
2024/01/16 07:48:13;;;;;;;2.77;2.00;;;15.90;57.60;16.70;100118.00;;;;5070398;28;20178;-43
2024/01/16 07:50:40;;;;;;;2.63;2.13;;;15.90;57.60;16.70;100129.00;;;;5070884;28;20170;-43
2024/01/16 07:53:06;;;;;;;2.13;1.93;;;16.00;57.60;16.70;100126.00;;;;5070815;28;20224;-43
2024/01/16 07:55:31;;;;;;;3.03;2.10;;;16.00;57.60;16.70;100127.00;;;;5077979;28;20209;-43
2024/01/16 07:57:57;;;;;;;2.13;1.80;;;16.00;57.70;16.80;100127.00;;;;5071160;28;20174;-44
2024/01/16 08:00:23;;;;;;;2.40;1.90;;;16.00;57.70;16.80;100117.00;;;;5070736;28;20570;-42
2024/01/16 08:02:49;;;;;;;2.20;1.90;;;16.00;58.30;16.80;100134.00;;;;5070920;28;20205;-44
2024/01/16 08:05:15;;;;;;;2.57;2.10;;;16.00;57.60;16.80;100110.00;;;;5070716;28;20724;-44
2024/01/16 08:07:43;;;;;;;2.20;2.00;;;16.00;57.70;16.80;100133.00;;;;5051372;28;20257;-44
2024/01/16 08:10:09;;;;;;;2.43;2.00;;;16.00;57.70;16.70;100147.00;;;;5070381;28;20611;-43
2024/01/16 08:12:37;;;;;;;3.10;2.00;;;15.90;57.60;16.70;100140.00;;;;5070697;28;20178;-43
2024/01/16 08:15:04;;;;;;;2.23;2.00;;;15.90;57.70;16.70;100137.00;;;;5069671;28;20209;-44
2024/01/16 08:17:30;;;;;;;2.53;1.90;;;15.90;57.60;16.70;100149.00;;;;5069946;28;20249;-43
2024/01/16 08:19:55;;;;;;;2.10;1.90;;;16.00;57.70;16.70;100073.00;;;;5074308;28;20177;-43
2024/01/16 08:22:21;;;;;;;2.47;2.20;;;15.90;57.60;16.70;100147.00;;;;5071917;28;20175;-43
2024/01/16 08:24:47;;;;;;;2.60;2.10;;;15.90;57.60;16.70;100143.00;;;;5070128;28;20205;-43
2024/01/16 08:27:13;;;;;;;2.50;1.90;;;15.90;57.60;16.70;100147.00;;;;5069011;28;20185;-44
2024/01/16 08:29:38;;;;;;;3.13;2.10;;;16.00;57.60;16.70;100152.00;;;;5052926;28;20664;-43
2024/01/16 08:32:04;;;;;;;2.17;1.87;;;16.00;57.70;16.70;100157.00;;;;5074987;28;20186;-43
2024/01/16 08:34:30;;;;;;;2.50;1.90;;;16.00;57.60;16.70;100148.00;;;;5070374;28;20581;-44
2024/01/16 08:36:56;;;;;;;1.93;1.70;;;15.90;57.60;16.70;100156.00;;;;5070183;28;20177;-43
2024/01/16 08:39:23;;;;;;;2.13;1.93;;;15.90;57.60;16.70;100157.00;;;;5070320;28;20182;-43
2024/01/16 08:41:49;;;;;;;2.20;2.00;;;15.90;57.60;16.70;100174.00;;;;5070904;28;20173;-43
2024/01/16 08:44:15;;;;;;;2.27;1.90;;;15.90;57.60;16.70;100167.00;;;;5068918;28;20180;-43
2024/01/16 08:46:41;;;;;;;2.23;1.90;;;15.90;57.60;16.70;100174.00;;;;5071391;28;20215;-43
2024/01/16 08:49:07;;;;;;;1.80;1.70;;;15.90;57.60;16.70;100172.00;;;;5070931;28;20185;-44
2024/01/16 08:51:32;;;;;;;2.00;1.80;;;15.90;57.60;16.70;100164.00;;;;5070615;28;20178;-43
2024/01/16 08:53:58;;;;;;;2.10;1.90;;;16.00;57.70;16.70;100168.00;;;;5069794;28;20201;-43
2024/01/16 08:56:24;;;;;;;3.57;2.00;;;16.00;57.70;16.70;100166.00;;;;5069743;28;20255;-43
2024/01/16 08:58:49;;;;;;;2.03;1.80;;;15.90;57.60;16.70;100161.00;;;;5069541;28;20182;-43
2024/01/16 09:01:15;;;;;;;2.20;2.00;;;15.90;57.60;16.70;100165.00;;;;5069170;28;20641;-44
2024/01/16 09:03:43;;;;;;;2.10;1.90;;;15.90;57.60;16.70;100165.00;;;;5050206;28;20197;-44
2024/01/16 09:06:10;;;;;;;2.10;1.90;;;16.00;57.70;16.70;100156.00;;;;5069302;28;20202;-43
2024/01/16 09:08:35;;;;;;;2.20;1.90;;;16.00;57.70;16.70;100165.00;;;;5069638;28;20181;-43
2024/01/16 09:11:01;;;;;;;2.27;1.83;;;16.00;57.70;16.70;100161.00;;;;5069319;28;20582;-43
2024/01/16 09:13:27;;;;;;;1.70;1.60;;;16.00;57.70;16.80;100152.00;;;;5069587;28;20173;-43
2024/01/16 09:15:53;;;;;;;2.00;1.80;;;15.90;57.60;16.70;100162.00;;;;5068969;28;20205;-43
2024/01/16 09:18:18;;;;;;;2.10;1.87;;;15.90;57.60;16.80;100163.00;;;;5068758;28;20178;-44
2024/01/16 09:20:44;;;;;;;2.00;1.80;;;16.00;57.70;16.80;100162.00;;;;5041642;28;20182;-44
2024/01/16 09:23:10;;;;;;;2.10;1.90;;;16.00;57.60;16.70;100164.00;;;;5069391;28;20219;-44
2024/01/16 09:25:36;;;;;;;3.33;1.87;;;16.00;57.60;16.80;100171.00;;;;5069325;28;20202;-44
2024/01/16 09:28:02;;;;;;;3.20;1.60;;;16.00;57.60;16.70;100169.00;;;;5068718;28;20740;-43
2024/01/16 09:30:28;;;;;;;2.23;2.00;;;16.00;57.70;16.80;100173.00;;;;5068956;28;20185;-43
2024/01/16 09:32:53;;;;;;;1.80;1.70;;;16.00;57.60;16.80;100165.00;;;;5049891;28;20181;-43
2024/01/16 09:35:19;;;;;;;2.00;1.80;;;16.00;57.50;16.80;100165.00;;;;5069221;28;20216;-43
2024/01/16 09:37:45;;;;;;;2.10;1.90;;;16.00;57.50;16.80;100165.00;;;;5069079;28;20178;-43
2024/01/16 09:40:11;;;;;;;1.80;1.70;;;16.00;57.60;16.80;100159.00;;;;5070097;28;20201;-43
2024/01/16 09:42:37;;;;;;;1.93;1.77;;;16.00;57.60;16.80;100174.00;;;;5038733;28;20590;-43
2024/01/16 09:45:03;;;;;;;2.00;1.80;;;16.00;57.50;16.80;100168.00;;;;5067882;28;20229;-43
2024/01/16 09:47:32;;;;;;;2.30;1.87;;;16.00;57.50;16.80;100170.00;;;;5045156;28;20194;-43
2024/01/16 09:49:59;;;;;;;2.00;1.70;;;16.10;57.60;16.80;100176.00;;;;5034591;28;20277;-44
2024/01/16 09:52:25;;;;;;;2.33;2.00;;;16.00;57.50;16.80;100161.00;;;;5068960;28;20258;-44
2024/01/16 09:54:51;;;;;;;1.90;1.73;;;16.10;57.50;16.80;100165.00;;;;5069108;28;20669;-44
2024/01/16 09:57:23;;;;;;;1.80;1.70;;;16.00;57.40;16.80;100156.00;;;;5043358;28;20240;-43
2024/01/16 09:59:49;;;;;;;1.97;1.87;;;16.10;57.60;16.80;100151.00;;;;5065002;28;20182;-43
2024/01/16 10:02:15;;;;;;;1.80;1.60;;;16.00;57.40;16.80;100158.00;;;;5065537;28;20646;-43
2024/01/16 10:04:41;;;;;;;1.90;1.80;;;16.00;57.60;16.80;100161.00;;;;5049386;28;20202;-43
2024/01/16 10:07:08;;;;;;;2.43;1.70;;;16.00;57.60;16.80;100163.00;;;;5070274;28;20189;-43
2024/01/16 10:09:33;;;;;;;2.00;1.80;;;16.00;57.50;16.80;100154.00;;;;5052019;28;20184;-43
2024/01/16 10:12:00;;;;;;;2.10;1.80;;;16.00;57.50;16.80;100153.00;;;;5052689;28;20604;-43
2024/01/16 10:14:25;;;;;;;1.70;1.60;;;16.00;57.50;16.80;100154.00;;;;5062785;28;20717;-43
2024/01/16 10:17:14;;;;;;;1.87;1.70;;;16.00;58.20;16.80;100162.00;;;;5049273;28;20229;-43
2024/01/16 10:19:52;;;;;;;4.20;2.03;;;16.00;57.60;16.80;100147.00;;;;5035483;28;20273;-44
2024/01/16 10:22:24;;;;;;;2.17;1.80;;;16.00;57.50;16.80;100148.00;;;;5054930;28;20170;-43
2024/01/16 10:25:03;;;;;;;2.00;1.80;;;16.00;57.60;16.80;100146.00;;;;5068697;28;20205;-44
2024/01/16 10:27:31;;;;;;;2.27;1.70;;;16.00;57.50;16.80;100145.00;;;;5040914;28;20642;-44
2024/01/16 10:29:57;;;;;;;2.20;2.00;;;16.00;57.50;16.80;100139.00;;;;5067460;28;20647;-43
2024/01/16 10:32:34;;;;;;;1.70;1.60;;;16.00;58.10;16.80;100133.00;;;;5068753;28;20600;-43
2024/01/16 10:35:04;;;;;;;2.27;1.80;;;16.00;57.60;16.80;100137.00;;;;5049191;28;20216;-43
2024/01/16 10:37:53;;;;;;;4.00;2.10;;;16.00;57.50;16.80;100132.00;;;;5069421;28;20170;-43
2024/01/16 10:40:29;;;;;;;2.80;1.80;;;16.00;57.40;16.80;100122.00;;;;5061751;28;20566;-44
2024/01/16 10:42:59;;;;;;;2.37;1.63;;;16.00;57.40;16.80;100119.00;;;;5068827;28;20182;-44